Green Forest, Arkansas
Current Conditions -  °F | °C
As of 4:53 PM on Wednesday 26 Nov 2014 (Local Time) from KHRO Reporting Station
Scattered Clouds Scattered Clouds  
Wind Chill: 39°   Ceiling: Unl
Heat Index: 44°   Visibility: 10mi
Dew Point: 25°   Wind: 10mph
Humidity: 47%   Direction: 300°WNW
Pressure: 30.1"   Gusts: 21mph
Location:  36.34°N, 93.44°W
Report Text: KHRO 262253Z AUTO 30009G18KT 10SM SCT060 07/M04 A3010 RMK AO2 SLP200 T00671039
Loading
Personal Weather Stations






























Interactive Weather Map New forecast layout! Learn more

10-Day Weather Forecast

Advertisements
Track Severe Weather on mobile